Terminal Aerodrome Forecast
Issued by NWS

Home | Current Version | Previous Version | Graphics & Text | Print | Product List | Glossary On
Versions: 1 2 3 4 5 6 7 8 9 10 11 12 13 14 15 16 17 18 19 20 21 22 23 24 25 26 27 28 29 30 31
000
FTUS42 KMHX 251128
TAFISO
TAF
KISO 251128Z 2512/2612 21010KT P6SM SCT008 BKN015
      TEMPO 2512/2514 BKN008
     FM251500 22015G25KT P6SM SCT050
     FM251800 23015G25KT P6SM VCSH BKN050
      TEMPO 2518/2521 4SM TS OVC025CB
     FM252100 24015G25KT P6SM BKN050
     FM252300 24010KT P6SM BKN090
     FM260200 24010KT P6SM SCT050
     FM260600 24010KT P6SM SCT250
      AMD LTD TO CLD VIS AND WIND=

USA.gov is the U.S. government's official web portal to all federal, state and local government web resources and services.